createdAt,value
2023-06-08T00:01:57.744Z,14.68
2023-06-08T00:04:31.741Z,14.75
2023-06-08T00:07:00.745Z,14.77
2023-06-08T00:09:28.720Z,14.77
2023-06-08T00:11:56.759Z,14.84
2023-06-08T00:14:24.757Z,14.76
2023-06-08T00:16:54.004Z,14.75
2023-06-08T00:19:23.829Z,14.73
2023-06-08T00:21:52.118Z,14.73
2023-06-08T00:24:20.937Z,14.72
2023-06-08T00:26:49.215Z,14.68
2023-06-08T00:29:17.279Z,14.71
2023-06-08T00:31:45.587Z,14.76
2023-06-08T00:34:13.723Z,14.82
2023-06-08T00:36:41.763Z,14.78
2023-06-08T00:39:10.037Z,14.77
2023-06-08T00:41:38.249Z,14.83
2023-06-08T00:44:06.997Z,14.82
2023-06-08T00:46:35.571Z,14.74
2023-06-08T00:49:04.229Z,14.65
2023-06-08T00:51:35.110Z,14.57
2023-06-08T00:54:03.520Z,14.56
2023-06-08T00:56:33.364Z,14.60
2023-06-08T00:59:02.244Z,14.59
2023-06-08T01:01:37.135Z,14.61
2023-06-08T01:04:08.922Z,14.66
2023-06-08T01:06:50.390Z,14.60
2023-06-08T01:09:35.285Z,14.54
2023-06-08T01:12:16.420Z,14.42
2023-06-08T01:14:52.335Z,14.38
2023-06-08T01:17:30.430Z,14.46
2023-06-08T01:20:13.741Z,14.59
2023-06-08T01:23:01.406Z,14.64
2023-06-08T01:25:30.303Z,14.69
2023-06-08T01:28:14.919Z,14.73
2023-06-08T01:30:47.420Z,14.76
2023-06-08T01:33:23.157Z,14.76
2023-06-08T01:36:01.318Z,14.82
2023-06-08T01:38:32.343Z,14.83
2023-06-08T01:41:04.613Z,14.86
2023-06-08T01:43:36.365Z,14.87
2023-06-08T01:46:08.170Z,14.85
2023-06-08T01:48:37.023Z,14.83
2023-06-08T01:51:06.129Z,14.84
2023-06-08T01:53:34.702Z,14.83
2023-06-08T01:56:02.662Z,14.83
2023-06-08T01:58:30.746Z,14.81
2023-06-08T02:00:58.851Z,14.77
2023-06-08T02:03:27.125Z,14.72
2023-06-08T02:05:55.157Z,14.69
2023-06-08T02:08:23.224Z,14.65
2023-06-08T02:10:51.274Z,14.63
2023-06-08T02:13:19.300Z,14.55
2023-06-08T02:15:47.207Z,14.51
2023-06-08T02:18:16.708Z,14.43
2023-06-08T02:20:44.620Z,14.38
2023-06-08T02:23:12.956Z,14.37
2023-06-08T02:25:40.879Z,14.36
2023-06-08T02:28:10.685Z,14.29
2023-06-08T02:30:38.729Z,14.31
2023-06-08T02:33:07.814Z,14.28
2023-06-08T02:35:37.513Z,14.24
2023-06-08T02:38:05.633Z,14.22
2023-06-08T02:40:33.850Z,14.22
2023-06-08T02:43:01.929Z,14.19
2023-06-08T02:45:31.327Z,14.13
2023-06-08T02:47:59.491Z,14.14
2023-06-08T02:50:27.626Z,14.21
2023-06-08T02:52:55.889Z,14.24
2023-06-08T02:55:24.075Z,14.28
2023-06-08T02:57:53.298Z,14.37
2023-06-08T03:00:22.982Z,14.43
2023-06-08T03:03:01.894Z,14.47
2023-06-08T03:05:30.723Z,14.52
2023-06-08T03:08:00.356Z,14.57
2023-06-08T03:10:28.616Z,14.56
2023-06-08T03:12:56.694Z,14.52
2023-06-08T03:15:25.029Z,14.59
2023-06-08T03:17:58.743Z,14.66
2023-06-08T03:20:27.562Z,14.65
2023-06-08T03:23:02.908Z,14.71
2023-06-08T03:25:31.720Z,14.71
2023-06-08T03:28:00.106Z,14.77
2023-06-08T03:30:30.094Z,14.83
2023-06-08T03:32:58.262Z,14.90
2023-06-08T03:35:30.348Z,14.90
2023-06-08T03:38:18.602Z,14.97
2023-06-08T03:40:46.869Z,15.04
2023-06-08T03:43:16.051Z,15.10
2023-06-08T03:45:44.471Z,15.16
2023-06-08T03:48:13.249Z,15.21
2023-06-08T03:50:45.219Z,15.30
2023-06-08T03:53:13.551Z,15.35
2023-06-08T03:55:41.646Z,15.43
2023-06-08T03:58:09.872Z,15.48
2023-06-08T04:00:38.146Z,15.64
2023-06-08T04:03:06.514Z,15.81
2023-06-08T04:05:35.708Z,15.83
2023-06-08T04:08:03.906Z,15.97
2023-06-08T04:10:32.586Z,16.09
2023-06-08T04:13:00.671Z,16.19
2023-06-08T04:15:29.237Z,16.27
2023-06-08T04:17:58.035Z,16.42
2023-06-08T04:20:26.600Z,16.46
2023-06-08T04:22:55.679Z,16.51
2023-06-08T04:25:26.264Z,16.64
2023-06-08T04:27:54.522Z,16.70
2023-06-08T04:30:23.071Z,16.80
2023-06-08T04:32:52.056Z,17.03
2023-06-08T04:35:21.051Z,17.30
2023-06-08T04:37:49.683Z,17.41
2023-06-08T04:40:21.209Z,17.58
2023-06-08T04:42:50.395Z,17.79
2023-06-08T04:45:20.302Z,18.02
2023-06-08T04:47:48.690Z,18.39
2023-06-08T04:50:17.087Z,18.57
2023-06-08T04:52:46.986Z,18.65
2023-06-08T04:55:15.179Z,18.77
2023-06-08T04:57:43.703Z,18.81
2023-06-08T05:00:12.341Z,18.75
2023-06-08T05:02:40.969Z,18.97
2023-06-08T05:05:09.568Z,19.00
2023-06-08T05:07:37.604Z,19.19
2023-06-08T05:10:06.520Z,19.39
2023-06-08T05:12:34.809Z,19.67
2023-06-08T05:15:04.129Z,19.96
2023-06-08T05:17:32.325Z,19.93
2023-06-08T05:20:00.456Z,19.94
2023-06-08T05:22:29.467Z,19.99
2023-06-08T05:24:57.400Z,19.90
2023-06-08T05:27:25.523Z,19.92
2023-06-08T05:29:53.536Z,19.81
2023-06-08T05:32:22.920Z,19.83
2023-06-08T05:34:51.901Z,19.71
2023-06-08T05:37:20.216Z,19.58
2023-06-08T05:39:48.449Z,19.78
2023-06-08T05:42:16.529Z,19.88
2023-06-08T05:44:44.995Z,20.07
2023-06-08T05:47:13.062Z,20.27
2023-06-08T05:49:41.180Z,20.55
2023-06-08T05:52:09.441Z,20.85
2023-06-08T05:54:37.544Z,20.87
2023-06-08T05:57:06.651Z,21.00
2023-06-08T05:59:34.647Z,21.03
2023-06-08T06:02:02.728Z,21.28
2023-06-08T06:04:37.297Z,21.01
2023-06-08T06:07:07.299Z,21.05
2023-06-08T06:09:35.706Z,21.24
2023-06-08T06:12:04.400Z,21.20
2023-06-08T06:14:39.762Z,21.28
2023-06-08T06:17:08.873Z,21.28
2023-06-08T06:19:39.044Z,21.52
2023-06-08T06:22:08.193Z,21.36
2023-06-08T06:24:36.729Z,21.57
2023-06-08T06:27:06.272Z,21.62
2023-06-08T06:29:35.127Z,21.62
2023-06-08T06:32:03.249Z,21.78
2023-06-08T06:34:31.968Z,21.94
2023-06-08T06:37:00.108Z,21.97
2023-06-08T06:39:28.938Z,21.99
2023-06-08T06:41:57.716Z,21.97
2023-06-08T06:44:30.121Z,21.98
2023-06-08T06:46:58.148Z,21.83
2023-06-08T06:49:26.654Z,21.98
2023-06-08T06:51:56.320Z,22.03
2023-06-08T06:54:24.314Z,22.04
2023-06-08T06:56:53.165Z,22.18
2023-06-08T06:59:21.862Z,22.11
2023-06-08T07:01:50.261Z,21.90
2023-06-08T07:04:20.904Z,21.91
2023-06-08T07:06:51.457Z,21.91
2023-06-08T07:09:22.748Z,22.02
2023-06-08T07:12:01.542Z,21.90
2023-06-08T07:14:38.862Z,21.93
2023-06-08T07:17:07.064Z,21.95
2023-06-08T07:19:35.064Z,21.83
2023-06-08T07:22:17.442Z,21.76
2023-06-08T07:25:44.453Z,21.69
2023-06-08T07:27:38.625Z,21.72
2023-06-08T07:30:07.993Z,21.68
2023-06-08T07:32:36.494Z,21.68
2023-06-08T07:35:05.665Z,21.68
2023-06-08T07:37:36.158Z,21.66
2023-06-08T07:40:13.655Z,21.71
2023-06-08T07:42:43.046Z,21.70
2023-06-08T07:45:12.574Z,21.80
2023-06-08T07:47:41.191Z,21.97
2023-06-08T07:50:10.626Z,22.14
2023-06-08T07:52:39.384Z,22.15
2023-06-08T07:55:07.546Z,22.13
2023-06-08T07:57:37.831Z,22.21
2023-06-08T08:00:07.389Z,22.26
2023-06-08T08:02:40.660Z,22.46
2023-06-08T08:05:09.880Z,22.60
2023-06-08T08:07:38.706Z,22.55
2023-06-08T08:10:09.388Z,22.40
2023-06-08T08:12:38.824Z,22.56
2023-06-08T08:15:07.179Z,22.53
2023-06-08T08:17:35.214Z,22.59
2023-06-08T08:20:04.954Z,22.76
2023-06-08T08:22:34.306Z,22.89
2023-06-08T08:25:02.415Z,22.98
2023-06-08T08:27:30.768Z,23.12
2023-06-08T08:29:58.894Z,23.00
2023-06-08T08:32:27.042Z,23.08
2023-06-08T08:34:55.345Z,23.12
2023-06-08T08:37:23.832Z,23.14
2023-06-08T08:39:52.177Z,23.23
2023-06-08T08:42:24.344Z,23.32
2023-06-08T08:44:55.119Z,23.38
2023-06-08T08:47:25.720Z,23.26
2023-06-08T08:50:00.357Z,23.10
2023-06-08T08:52:30.388Z,23.06
2023-06-08T08:55:02.297Z,23.11
2023-06-08T08:57:30.724Z,23.03
2023-06-08T08:59:59.662Z,23.06
2023-06-08T09:02:27.842Z,23.17
2023-06-08T09:04:56.002Z,23.20
2023-06-08T09:07:25.618Z,23.22
2023-06-08T09:10:20.411Z,23.13
2023-06-08T09:12:50.739Z,23.18
2023-06-08T09:15:29.358Z,23.26
2023-06-08T09:17:58.579Z,23.60
2023-06-08T09:20:29.963Z,23.76
2023-06-08T09:22:59.792Z,24.10
2023-06-08T09:25:39.385Z,24.25
2023-06-08T09:28:18.081Z,24.28
2023-06-08T09:30:46.853Z,24.16
2023-06-08T09:33:26.257Z,24.25
2023-06-08T09:35:57.407Z,24.04
2023-06-08T09:38:28.481Z,24.22
2023-06-08T09:41:15.764Z,24.30
2023-06-08T09:43:45.135Z,24.26
2023-06-08T09:46:17.882Z,24.22
2023-06-08T09:48:54.375Z,24.29
2023-06-08T09:51:23.701Z,24.19
2023-06-08T09:53:58.906Z,24.18
2023-06-08T09:56:30.021Z,24.41
2023-06-08T09:58:59.571Z,24.55
2023-06-08T10:01:57.032Z,24.55
2023-06-08T10:04:34.623Z,24.59
2023-06-08T10:07:04.364Z,24.56
2023-06-08T10:09:35.960Z,24.58
2023-06-08T10:12:04.137Z,24.68
2023-06-08T10:14:32.540Z,24.74
2023-06-08T10:17:00.742Z,24.83
2023-06-08T10:19:32.108Z,24.94
2023-06-08T10:22:01.850Z,25.14
2023-06-08T10:24:34.179Z,25.11
2023-06-08T10:27:10.782Z,25.17
2023-06-08T10:29:39.122Z,25.16
2023-06-08T10:32:11.670Z,25.16
2023-06-08T10:34:40.870Z,24.94
2023-06-08T10:37:26.577Z,24.86
2023-06-08T10:39:54.957Z,24.86
2023-06-08T10:42:23.020Z,24.91
2023-06-08T10:44:55.806Z,24.87
2023-06-08T10:47:24.176Z,24.80
2023-06-08T10:49:56.592Z,24.80
2023-06-08T10:52:25.444Z,24.78
2023-06-08T10:55:15.250Z,24.76
2023-06-08T10:57:45.837Z,24.77
2023-06-08T11:00:32.547Z,24.62
2023-06-08T11:03:05.591Z,24.61
2023-06-08T11:05:38.158Z,24.56
2023-06-08T11:08:10.715Z,24.50
2023-06-08T11:10:42.754Z,24.45
2023-06-08T11:13:12.289Z,24.37
2023-06-08T11:15:44.737Z,24.22
2023-06-08T11:18:13.224Z,24.07
2023-06-08T11:20:42.001Z,23.81
2023-06-08T11:23:12.520Z,23.42
2023-06-08T11:25:41.937Z,23.23
2023-06-08T11:28:12.236Z,22.93
2023-06-08T11:30:40.624Z,22.74
2023-06-08T11:33:10.459Z,22.53
2023-06-08T11:35:38.669Z,22.35
2023-06-08T11:38:06.849Z,22.12
2023-06-08T11:40:40.259Z,21.89
2023-06-08T11:43:10.314Z,21.29
2023-06-08T11:45:40.379Z,20.94
2023-06-08T11:50:46.061Z,20.75
2023-06-08T11:53:17.119Z,20.59
2023-06-08T11:55:47.435Z,20.31
2023-06-08T11:58:15.852Z,20.03
2023-06-08T12:00:44.192Z,19.98
2023-06-08T12:03:12.879Z,19.75
2023-06-08T12:05:42.055Z,19.38
2023-06-08T12:08:20.822Z,19.40
2023-06-08T12:10:49.630Z,19.36
2023-06-08T12:13:21.016Z,19.22
2023-06-08T12:15:51.706Z,18.84
2023-06-08T12:18:20.379Z,18.46
2023-06-08T12:20:52.511Z,18.23
2023-06-08T12:23:23.943Z,17.94
2023-06-08T12:25:53.289Z,17.59
2023-06-08T12:28:24.156Z,17.45
2023-06-08T12:30:52.917Z,17.44
2023-06-08T12:33:22.618Z,17.43
2023-06-08T12:35:51.620Z,17.39
2023-06-08T12:38:19.671Z,17.27
2023-06-08T12:40:52.543Z,17.08
2023-06-08T12:43:21.901Z,16.93
2023-06-08T12:45:50.977Z,16.76
2023-06-08T12:48:19.659Z,16.68
2023-06-08T12:50:47.950Z,16.65
2023-06-08T12:53:15.973Z,16.59
2023-06-08T12:55:44.247Z,16.64
2023-06-08T12:58:12.572Z,16.74
2023-06-08T13:00:40.885Z,16.92
2023-06-08T13:03:10.013Z,17.10
2023-06-08T13:05:38.230Z,17.30
2023-06-08T13:08:07.496Z,17.49
2023-06-08T13:10:36.691Z,17.62
2023-06-08T13:13:05.025Z,17.55
2023-06-08T13:15:33.221Z,17.60
2023-06-08T13:18:01.277Z,17.83
2023-06-08T13:20:29.907Z,18.03
2023-06-08T13:22:58.163Z,18.14
2023-06-08T13:25:26.489Z,18.21
2023-06-08T13:27:54.771Z,18.25
2023-06-08T13:30:23.134Z,18.47
2023-06-08T13:32:51.856Z,18.67
2023-06-08T13:35:20.050Z,18.83
2023-06-08T13:37:48.381Z,18.90
2023-06-08T13:40:16.666Z,19.03
2023-06-08T13:42:44.677Z,19.12
2023-06-08T13:45:13.473Z,19.22
2023-06-08T13:47:44.626Z,19.33
2023-06-08T13:50:13.064Z,19.50
2023-06-08T13:52:41.294Z,19.72
2023-06-08T13:55:09.527Z,19.92
2023-06-08T13:57:37.656Z,20.16
2023-06-08T14:00:06.521Z,20.45
2023-06-08T14:02:41.366Z,20.66
2023-06-08T14:05:09.950Z,20.74
2023-06-08T14:07:38.214Z,20.87
2023-06-08T14:10:07.453Z,20.89
2023-06-08T14:12:36.243Z,20.91
2023-06-08T14:15:04.870Z,20.93
2023-06-08T14:17:32.881Z,20.96
2023-06-08T14:20:01.050Z,20.74
2023-06-08T14:22:29.565Z,20.67
2023-06-08T14:24:57.739Z,20.49
2023-06-08T14:27:25.722Z,20.49
2023-06-08T14:29:53.674Z,20.50
2023-06-08T14:32:21.736Z,20.53
2023-06-08T14:34:50.044Z,20.69
2023-06-08T14:37:18.151Z,20.68
2023-06-08T14:39:46.300Z,20.57
2023-06-08T14:42:14.327Z,20.73
2023-06-08T14:44:42.912Z,20.75
2023-06-08T14:47:11.351Z,20.74
2023-06-08T14:49:39.418Z,20.79
2023-06-08T14:52:07.919Z,20.66
2023-06-08T14:54:36.061Z,20.85
2023-06-08T14:57:04.477Z,20.98
2023-06-08T14:59:32.564Z,21.00
2023-06-08T15:02:00.667Z,20.94
2023-06-08T15:04:29.223Z,21.11
2023-06-08T15:06:57.212Z,21.03
2023-06-08T15:09:25.350Z,20.93
2023-06-08T15:11:53.312Z,20.89
2023-06-08T15:14:21.456Z,20.87
2023-06-08T15:16:49.705Z,20.79
2023-06-08T15:19:17.893Z,20.61
2023-06-08T15:21:45.951Z,20.63
2023-06-08T15:24:14.071Z,20.61
2023-06-08T15:26:42.683Z,20.50
2023-06-08T15:29:13.681Z,20.45
2023-06-08T15:31:43.109Z,20.47
2023-06-08T15:34:11.285Z,20.40
2023-06-08T15:36:39.353Z,20.25
2023-06-08T15:39:08.336Z,20.27
2023-06-08T15:41:36.458Z,20.26
2023-06-08T15:44:05.870Z,20.25
2023-06-08T15:46:34.879Z,20.23
2023-06-08T15:49:03.175Z,20.16
2023-06-08T15:51:31.776Z,20.14
2023-06-08T15:54:00.791Z,20.00
2023-06-08T15:56:28.777Z,20.04
2023-06-08T15:58:56.993Z,20.11
2023-06-08T16:01:27.152Z,20.13
2023-06-08T16:03:55.217Z,20.12
2023-06-08T16:06:25.758Z,20.14
2023-06-08T16:08:54.210Z,20.13
2023-06-08T16:11:22.970Z,20.13
2023-06-08T16:13:51.289Z,20.17
2023-06-08T16:16:19.416Z,20.17
2023-06-08T16:18:48.795Z,20.16
2023-06-08T16:21:16.926Z,20.13
2023-06-08T16:23:48.287Z,20.15
2023-06-08T16:26:16.716Z,20.15
2023-06-08T16:28:44.729Z,20.14
2023-06-08T16:31:18.601Z,20.14
2023-06-08T16:33:47.118Z,20.14
2023-06-08T16:36:15.318Z,20.10
2023-06-08T16:38:46.186Z,20.11
2023-06-08T16:41:14.524Z,20.01
2023-06-08T16:43:44.927Z,20.02
2023-06-08T16:46:12.946Z,20.01
2023-06-08T16:48:40.916Z,19.96
2023-06-08T16:51:10.483Z,19.93
2023-06-08T16:53:38.492Z,19.85
2023-06-08T16:56:06.831Z,19.89
2023-06-08T16:58:36.615Z,19.90
2023-06-08T17:01:07.890Z,19.89
2023-06-08T17:03:36.409Z,19.95
2023-06-08T17:06:04.582Z,19.97
2023-06-08T17:08:32.654Z,19.98
2023-06-08T17:11:00.710Z,20.01
2023-06-08T17:13:28.745Z,19.97
2023-06-08T17:15:56.793Z,19.97
2023-06-08T17:18:25.191Z,19.96
2023-06-08T17:20:54.522Z,19.88
2023-06-08T17:23:22.643Z,19.80
2023-06-08T17:25:50.863Z,19.80
2023-06-08T17:28:18.873Z,19.77
2023-06-08T17:30:47.007Z,19.73
2023-06-08T17:33:15.357Z,19.69
2023-06-08T17:35:43.585Z,19.72
2023-06-08T17:38:11.605Z,19.66
2023-06-08T17:40:39.612Z,19.65
2023-06-08T17:43:07.585Z,19.59
2023-06-08T17:45:36.012Z,19.56
2023-06-08T17:48:04.434Z,19.46
2023-06-08T17:50:32.663Z,19.49
2023-06-08T17:53:01.949Z,19.48
2023-06-08T17:55:30.518Z,19.44
2023-06-08T17:57:59.370Z,19.41
2023-06-08T18:00:27.848Z,19.36
2023-06-08T18:02:56.227Z,19.30
2023-06-08T18:05:24.650Z,19.19
2023-06-08T18:07:52.828Z,19.05
2023-06-08T18:10:20.903Z,19.01
2023-06-08T18:12:49.110Z,18.95
2023-06-08T18:15:17.371Z,18.84
2023-06-08T18:17:45.501Z,18.74
2023-06-08T18:20:13.762Z,18.70
2023-06-08T18:22:44.110Z,18.61
2023-06-08T18:25:13.260Z,18.50
2023-06-08T18:27:41.654Z,18.41
2023-06-08T18:30:10.509Z,18.34
2023-06-08T18:32:40.548Z,18.29
2023-06-08T18:35:08.959Z,18.26
2023-06-08T18:37:37.995Z,18.22
2023-06-08T18:40:06.733Z,18.19
2023-06-08T18:42:34.764Z,18.17
2023-06-08T18:45:02.946Z,18.12
2023-06-08T18:47:31.005Z,18.08
2023-06-08T18:49:58.968Z,18.09
2023-06-08T18:52:27.710Z,18.06
2023-06-08T18:54:55.992Z,17.99
2023-06-08T18:57:24.337Z,17.93
2023-06-08T18:59:52.434Z,17.83
2023-06-08T19:02:20.999Z,17.79
2023-06-08T19:04:48.962Z,17.73
2023-06-08T19:07:17.035Z,17.75
2023-06-08T19:09:45.761Z,17.76
2023-06-08T19:12:15.230Z,17.75
2023-06-08T19:14:43.647Z,17.75
2023-06-08T19:17:11.884Z,17.76
2023-06-08T19:19:40.500Z,17.73
2023-06-08T19:22:11.230Z,17.72
2023-06-08T19:24:39.168Z,17.70
2023-06-08T19:27:07.416Z,17.69
2023-06-08T19:29:35.412Z,17.66
2023-06-08T19:32:03.716Z,17.63
2023-06-08T19:34:32.350Z,17.58
2023-06-08T19:37:00.390Z,17.54
2023-06-08T19:39:30.103Z,17.51
2023-06-08T19:41:59.320Z,17.48
2023-06-08T19:44:27.271Z,17.43
2023-06-08T19:46:55.421Z,17.35
2023-06-08T19:49:23.718Z,17.38
2023-06-08T19:51:53.113Z,17.41
2023-06-08T19:54:23.652Z,17.43
2023-06-08T19:56:52.244Z,17.40
2023-06-08T19:59:20.635Z,17.30
2023-06-08T20:01:50.070Z,17.26
2023-06-08T20:04:18.313Z,17.25
2023-06-08T20:06:54.041Z,17.24
2023-06-08T20:09:23.856Z,17.23
2023-06-08T20:11:52.626Z,17.21
2023-06-08T20:14:21.143Z,17.18
2023-06-08T20:16:52.889Z,17.18
2023-06-08T20:19:21.889Z,17.15
2023-06-08T20:21:50.184Z,17.18
2023-06-08T20:24:18.714Z,17.18
2023-06-08T20:26:47.989Z,17.17
2023-06-08T20:29:16.635Z,17.15
2023-06-08T20:31:44.856Z,17.12
2023-06-08T20:34:12.925Z,17.12
2023-06-08T20:36:40.968Z,17.11
2023-06-08T20:39:09.015Z,17.06
2023-06-08T20:41:39.161Z,17.07
2023-06-08T20:44:07.452Z,17.08
2023-06-08T20:46:35.897Z,17.08
2023-06-08T20:49:06.242Z,17.10
2023-06-08T20:51:34.675Z,17.10
2023-06-08T20:54:02.601Z,17.11
2023-06-08T20:56:30.926Z,17.14
2023-06-08T20:58:58.910Z,17.13
2023-06-08T21:01:26.861Z,17.15
2023-06-08T21:03:55.127Z,17.17
2023-06-08T21:06:23.099Z,17.18
2023-06-08T21:08:51.900Z,17.18
2023-06-08T21:11:19.896Z,17.21
2023-06-08T21:13:47.900Z,17.24
2023-06-08T21:16:15.928Z,17.27
2023-06-08T21:18:44.006Z,17.27
2023-06-08T21:21:13.046Z,17.28
2023-06-08T21:23:41.076Z,17.23
2023-06-08T21:26:09.243Z,17.16
2023-06-08T21:28:37.421Z,17.15
2023-06-08T21:31:05.506Z,17.21
2023-06-08T21:33:33.508Z,17.21
2023-06-08T21:36:10.846Z,17.21
2023-06-08T21:38:39.723Z,17.21
2023-06-08T21:41:08.092Z,17.21
2023-06-08T21:43:36.798Z,17.15
2023-06-08T21:46:05.001Z,17.16
2023-06-08T21:48:33.245Z,17.16
2023-06-08T21:51:01.423Z,17.14
2023-06-08T21:53:29.361Z,17.13
2023-06-08T21:55:57.925Z,17.09
2023-06-08T21:58:26.547Z,17.08
2023-06-08T22:00:54.651Z,17.02
2023-06-08T22:03:23.045Z,16.99
2023-06-08T22:05:51.836Z,16.87
2023-06-08T22:08:19.922Z,16.88
2023-06-08T22:10:47.959Z,16.89
2023-06-08T22:13:16.349Z,16.89
2023-06-08T22:15:44.755Z,16.90
2023-06-08T22:18:12.767Z,16.89
2023-06-08T22:20:42.213Z,16.89
2023-06-08T22:23:10.728Z,16.91
2023-06-08T22:25:41.202Z,16.92
2023-06-08T22:28:09.950Z,16.85
2023-06-08T22:30:39.105Z,16.84
2023-06-08T22:33:07.275Z,16.78
2023-06-08T22:35:35.415Z,16.83
2023-06-08T22:38:03.492Z,16.86
2023-06-08T22:40:31.555Z,16.86
2023-06-08T22:42:59.634Z,16.84
2023-06-08T22:45:27.728Z,16.80
2023-06-08T22:47:55.966Z,16.64
2023-06-08T22:50:25.699Z,16.55
2023-06-08T22:52:57.040Z,16.41
2023-06-08T22:55:29.044Z,16.26
2023-06-08T22:57:57.787Z,16.21
2023-06-08T23:00:26.121Z,16.25
2023-06-08T23:02:54.154Z,16.19
2023-06-08T23:05:22.240Z,16.17
2023-06-08T23:07:52.247Z,16.23
2023-06-08T23:10:22.556Z,16.17
2023-06-08T23:12:51.080Z,16.19
2023-06-08T23:15:19.349Z,16.15
2023-06-08T23:17:47.571Z,16.22
2023-06-08T23:20:16.894Z,16.17
2023-06-08T23:22:45.030Z,16.19
2023-06-08T23:25:18.096Z,16.20
2023-06-08T23:27:46.898Z,16.17
2023-06-08T23:30:15.683Z,16.13
2023-06-08T23:32:44.201Z,16.10
2023-06-08T23:35:12.589Z,16.06
2023-06-08T23:37:40.969Z,16.09
2023-06-08T23:40:09.267Z,16.12
2023-06-08T23:42:39.030Z,16.12
2023-06-08T23:45:08.879Z,16.09
2023-06-08T23:47:39.149Z,16.05
2023-06-08T23:50:07.382Z,16.05
2023-06-08T23:52:35.476Z,16.14
2023-06-08T23:55:03.671Z,16.23
2023-06-08T23:57:32.046Z,16.27
